sensor_id;sensor_type;location;lat;lon;timestamp;P1;durP1;ratioP1;P2;durP2;ratioP2
70556;SDS011;58107;51.034;3.726;2022-07-18T00:02:03;9.48;;;3.52;;
70556;SDS011;58107;51.034;3.726;2022-07-18T00:04:31;6.40;;;3.50;;
70556;SDS011;58107;51.034;3.726;2022-07-18T00:06:58;8.43;;;3.67;;
70556;SDS011;58107;51.034;3.726;2022-07-18T00:09:26;7.95;;;3.42;;
70556;SDS011;58107;51.034;3.726;2022-07-18T00:11:54;11.55;;;4.15;;
70556;SDS011;58107;51.034;3.726;2022-07-18T00:14:22;7.65;;;3.75;;
70556;SDS011;58107;51.034;3.726;2022-07-18T00:16:50;13.05;;;3.70;;
70556;SDS011;58107;51.034;3.726;2022-07-18T00:19:18;9.18;;;3.62;;
70556;SDS011;58107;51.034;3.726;2022-07-18T00:21:45;8.93;;;3.47;;
70556;SDS011;58107;51.034;3.726;2022-07-18T00:24:13;10.00;;;3.70;;
70556;SDS011;58107;51.034;3.726;2022-07-18T00:26:41;10.55;;;3.80;;
70556;SDS011;58107;51.034;3.726;2022-07-18T00:29:09;8.48;;;3.58;;
70556;SDS011;58107;51.034;3.726;2022-07-18T00:31:37;9.70;;;3.90;;
70556;SDS011;58107;51.034;3.726;2022-07-18T00:34:05;10.93;;;3.90;;
70556;SDS011;58107;51.034;3.726;2022-07-18T00:36:33;8.85;;;3.95;;
70556;SDS011;58107;51.034;3.726;2022-07-18T00:39:00;7.17;;;3.55;;
70556;SDS011;58107;51.034;3.726;2022-07-18T00:41:29;9.38;;;3.87;;
70556;SDS011;58107;51.034;3.726;2022-07-18T00:43:57;9.48;;;3.62;;
70556;SDS011;58107;51.034;3.726;2022-07-18T00:46:25;8.33;;;3.67;;
70556;SDS011;58107;51.034;3.726;2022-07-18T00:48:54;9.10;;;3.37;;
70556;SDS011;58107;51.034;3.726;2022-07-18T00:51:22;11.38;;;4.42;;
70556;SDS011;58107;51.034;3.726;2022-07-18T00:53:50;9.20;;;3.80;;
70556;SDS011;58107;51.034;3.726;2022-07-18T00:56:19;8.48;;;3.65;;
70556;SDS011;58107;51.034;3.726;2022-07-18T00:58:48;7.45;;;3.77;;
70556;SDS011;58107;51.034;3.726;2022-07-18T01:01:16;11.68;;;3.95;;
70556;SDS011;58107;51.034;3.726;2022-07-18T01:04:02;7.12;;;3.40;;
70556;SDS011;58107;51.034;3.726;2022-07-18T01:06:30;10.43;;;4.00;;
70556;SDS011;58107;51.034;3.726;2022-07-18T01:08:57;8.35;;;3.20;;
70556;SDS011;58107;51.034;3.726;2022-07-18T01:11:26;7.45;;;3.45;;
70556;SDS011;58107;51.034;3.726;2022-07-18T01:13:54;4.97;;;2.98;;
70556;SDS011;58107;51.034;3.726;2022-07-18T01:16:22;8.18;;;3.30;;
70556;SDS011;58107;51.034;3.726;2022-07-18T01:18:50;9.30;;;3.40;;
70556;SDS011;58107;51.034;3.726;2022-07-18T01:21:18;14.15;;;3.92;;
70556;SDS011;58107;51.034;3.726;2022-07-18T01:23:45;7.42;;;3.50;;
70556;SDS011;58107;51.034;3.726;2022-07-18T01:26:14;11.38;;;3.62;;
70556;SDS011;58107;51.034;3.726;2022-07-18T01:28:43;8.13;;;3.08;;
70556;SDS011;58107;51.034;3.726;2022-07-18T01:31:12;7.97;;;3.40;;
70556;SDS011;58107;51.034;3.726;2022-07-18T01:33:40;6.87;;;3.35;;
70556;SDS011;58107;51.034;3.726;2022-07-18T01:36:08;7.70;;;2.90;;
70556;SDS011;58107;51.034;3.726;2022-07-18T01:38:36;9.75;;;3.30;;
70556;SDS011;58107;51.034;3.726;2022-07-18T01:41:05;13.62;;;3.33;;
70556;SDS011;58107;51.034;3.726;2022-07-18T01:43:33;14.18;;;3.37;;
70556;SDS011;58107;51.034;3.726;2022-07-18T01:46:02;11.73;;;3.60;;
70556;SDS011;58107;51.034;3.726;2022-07-18T01:48:30;9.88;;;3.27;;
70556;SDS011;58107;51.034;3.726;2022-07-18T01:50:58;9.63;;;3.30;;
70556;SDS011;58107;51.034;3.726;2022-07-18T01:53:27;4.90;;;3.20;;
70556;SDS011;58107;51.034;3.726;2022-07-18T01:55:54;6.30;;;2.92;;
70556;SDS011;58107;51.034;3.726;2022-07-18T01:58:22;7.92;;;3.65;;
70556;SDS011;58107;51.034;3.726;2022-07-18T02:00:52;7.45;;;3.20;;
70556;SDS011;58107;51.034;3.726;2022-07-18T02:03:19;8.45;;;3.42;;
70556;SDS011;58107;51.034;3.726;2022-07-18T02:05:47;9.30;;;3.77;;
70556;SDS011;58107;51.034;3.726;2022-07-18T02:08:15;7.25;;;3.20;;
70556;SDS011;58107;51.034;3.726;2022-07-18T02:10:43;7.67;;;3.20;;
70556;SDS011;58107;51.034;3.726;2022-07-18T02:13:10;8.43;;;3.83;;
70556;SDS011;58107;51.034;3.726;2022-07-18T02:15:38;9.38;;;3.47;;
70556;SDS011;58107;51.034;3.726;2022-07-18T02:18:06;7.83;;;3.62;;
70556;SDS011;58107;51.034;3.726;2022-07-18T02:20:34;10.93;;;3.75;;
70556;SDS011;58107;51.034;3.726;2022-07-18T02:23:02;8.05;;;4.05;;
70556;SDS011;58107;51.034;3.726;2022-07-18T02:25:30;11.28;;;3.75;;
70556;SDS011;58107;51.034;3.726;2022-07-18T02:27:58;8.20;;;3.58;;
70556;SDS011;58107;51.034;3.726;2022-07-18T02:30:25;6.47;;;3.70;;
70556;SDS011;58107;51.034;3.726;2022-07-18T02:32:53;8.05;;;3.90;;
70556;SDS011;58107;51.034;3.726;2022-07-18T02:35:21;8.15;;;4.00;;
70556;SDS011;58107;51.034;3.726;2022-07-18T02:37:51;9.65;;;4.17;;
70556;SDS011;58107;51.034;3.726;2022-07-18T02:40:19;10.23;;;3.80;;
70556;SDS011;58107;51.034;3.726;2022-07-18T02:42:48;9.90;;;4.20;;
70556;SDS011;58107;51.034;3.726;2022-07-18T02:45:16;12.33;;;4.40;;
70556;SDS011;58107;51.034;3.726;2022-07-18T02:47:44;7.62;;;3.65;;
70556;SDS011;58107;51.034;3.726;2022-07-18T02:50:12;7.40;;;3.60;;
70556;SDS011;58107;51.034;3.726;2022-07-18T02:52:40;9.40;;;3.65;;
70556;SDS011;58107;51.034;3.726;2022-07-18T02:55:08;8.68;;;4.05;;
70556;SDS011;58107;51.034;3.726;2022-07-18T02:57:37;10.82;;;3.75;;
70556;SDS011;58107;51.034;3.726;2022-07-18T03:00:06;10.95;;;3.62;;
70556;SDS011;58107;51.034;3.726;2022-07-18T03:02:39;8.03;;;3.45;;
70556;SDS011;58107;51.034;3.726;2022-07-18T03:05:08;11.68;;;3.70;;
70556;SDS011;58107;51.034;3.726;2022-07-18T03:07:36;6.40;;;3.45;;
70556;SDS011;58107;51.034;3.726;2022-07-18T03:10:05;6.35;;;3.30;;
70556;SDS011;58107;51.034;3.726;2022-07-18T03:12:34;7.97;;;3.50;;
70556;SDS011;58107;51.034;3.726;2022-07-18T03:15:02;10.10;;;3.47;;
70556;SDS011;58107;51.034;3.726;2022-07-18T03:17:30;9.03;;;3.72;;
70556;SDS011;58107;51.034;3.726;2022-07-18T03:19:58;8.98;;;3.45;;
70556;SDS011;58107;51.034;3.726;2022-07-18T03:22:26;6.53;;;3.27;;
70556;SDS011;58107;51.034;3.726;2022-07-18T03:24:54;7.12;;;3.15;;
70556;SDS011;58107;51.034;3.726;2022-07-18T03:27:22;10.05;;;3.80;;
70556;SDS011;58107;51.034;3.726;2022-07-18T03:29:49;8.68;;;3.87;;
70556;SDS011;58107;51.034;3.726;2022-07-18T03:32:17;11.85;;;3.98;;
70556;SDS011;58107;51.034;3.726;2022-07-18T03:34:45;11.70;;;3.70;;
70556;SDS011;58107;51.034;3.726;2022-07-18T03:37:13;10.88;;;3.98;;
70556;SDS011;58107;51.034;3.726;2022-07-18T03:39:41;8.55;;;3.42;;
70556;SDS011;58107;51.034;3.726;2022-07-18T03:42:09;7.97;;;3.77;;
70556;SDS011;58107;51.034;3.726;2022-07-18T03:44:36;6.72;;;3.25;;
70556;SDS011;58107;51.034;3.726;2022-07-18T03:47:04;9.58;;;4.00;;
70556;SDS011;58107;51.034;3.726;2022-07-18T03:49:32;5.78;;;3.50;;
70556;SDS011;58107;51.034;3.726;2022-07-18T03:52:00;12.85;;;3.80;;
70556;SDS011;58107;51.034;3.726;2022-07-18T03:54:27;8.00;;;3.55;;
70556;SDS011;58107;51.034;3.726;2022-07-18T03:56:55;9.28;;;3.75;;
70556;SDS011;58107;51.034;3.726;2022-07-18T03:59:23;10.43;;;3.90;;
70556;SDS011;58107;51.034;3.726;2022-07-18T04:01:51;11.05;;;3.98;;
70556;SDS011;58107;51.034;3.726;2022-07-18T04:04:19;6.50;;;3.52;;
70556;SDS011;58107;51.034;3.726;2022-07-18T04:06:47;13.68;;;3.60;;
70556;SDS011;58107;51.034;3.726;2022-07-18T04:09:15;9.25;;;3.90;;
70556;SDS011;58107;51.034;3.726;2022-07-18T04:11:42;8.55;;;3.40;;
70556;SDS011;58107;51.034;3.726;2022-07-18T04:14:10;8.60;;;3.30;;
70556;SDS011;58107;51.034;3.726;2022-07-18T04:16:38;8.78;;;3.65;;
70556;SDS011;58107;51.034;3.726;2022-07-18T04:19:05;10.78;;;3.72;;
70556;SDS011;58107;51.034;3.726;2022-07-18T04:21:33;7.78;;;4.05;;
70556;SDS011;58107;51.034;3.726;2022-07-18T04:24:01;13.00;;;3.37;;
70556;SDS011;58107;51.034;3.726;2022-07-18T04:26:28;13.68;;;3.75;;
70556;SDS011;58107;51.034;3.726;2022-07-18T04:28:56;15.50;;;4.00;;
70556;SDS011;58107;51.034;3.726;2022-07-18T04:31:24;8.15;;;3.85;;
70556;SDS011;58107;51.034;3.726;2022-07-18T04:33:51;11.55;;;4.25;;
70556;SDS011;58107;51.034;3.726;2022-07-18T04:36:19;10.58;;;4.08;;
70556;SDS011;58107;51.034;3.726;2022-07-18T04:38:47;11.57;;;3.72;;
70556;SDS011;58107;51.034;3.726;2022-07-18T04:41:15;9.93;;;3.67;;
70556;SDS011;58107;51.034;3.726;2022-07-18T04:43:44;5.85;;;3.67;;
70556;SDS011;58107;51.034;3.726;2022-07-18T04:46:33;16.17;;;4.00;;
70556;SDS011;58107;51.034;3.726;2022-07-18T04:49:01;10.63;;;4.22;;
70556;SDS011;58107;51.034;3.726;2022-07-18T04:51:29;11.18;;;4.25;;
70556;SDS011;58107;51.034;3.726;2022-07-18T04:53:57;13.43;;;4.30;;
70556;SDS011;58107;51.034;3.726;2022-07-18T04:56:26;10.20;;;4.05;;
70556;SDS011;58107;51.034;3.726;2022-07-18T04:58:53;10.55;;;4.40;;
70556;SDS011;58107;51.034;3.726;2022-07-18T05:01:21;8.70;;;3.92;;
70556;SDS011;58107;51.034;3.726;2022-07-18T05:03:51;11.78;;;3.92;;
70556;SDS011;58107;51.034;3.726;2022-07-18T05:06:18;9.53;;;4.17;;
70556;SDS011;58107;51.034;3.726;2022-07-18T05:08:46;11.73;;;4.33;;
70556;SDS011;58107;51.034;3.726;2022-07-18T05:11:14;11.63;;;4.72;;
70556;SDS011;58107;51.034;3.726;2022-07-18T05:13:42;12.58;;;4.40;;
70556;SDS011;58107;51.034;3.726;2022-07-18T05:16:11;8.98;;;4.40;;
70556;SDS011;58107;51.034;3.726;2022-07-18T05:18:38;14.53;;;4.58;;
70556;SDS011;58107;51.034;3.726;2022-07-18T05:21:06;10.08;;;3.47;;
70556;SDS011;58107;51.034;3.726;2022-07-18T05:23:34;12.88;;;4.33;;
70556;SDS011;58107;51.034;3.726;2022-07-18T05:26:03;11.28;;;3.90;;
70556;SDS011;58107;51.034;3.726;2022-07-18T05:28:31;11.60;;;4.10;;
70556;SDS011;58107;51.034;3.726;2022-07-18T05:30:59;16.23;;;3.92;;
70556;SDS011;58107;51.034;3.726;2022-07-18T05:33:26;8.48;;;4.20;;
70556;SDS011;58107;51.034;3.726;2022-07-18T05:35:54;10.95;;;4.50;;
70556;SDS011;58107;51.034;3.726;2022-07-18T05:38:22;10.80;;;4.15;;
70556;SDS011;58107;51.034;3.726;2022-07-18T05:40:50;12.03;;;4.17;;
70556;SDS011;58107;51.034;3.726;2022-07-18T05:43:17;12.00;;;4.20;;
70556;SDS011;58107;51.034;3.726;2022-07-18T05:45:45;9.85;;;3.85;;
70556;SDS011;58107;51.034;3.726;2022-07-18T05:48:13;11.08;;;4.40;;
70556;SDS011;58107;51.034;3.726;2022-07-18T05:50:40;10.40;;;4.25;;
70556;SDS011;58107;51.034;3.726;2022-07-18T05:53:08;15.35;;;4.40;;
70556;SDS011;58107;51.034;3.726;2022-07-18T05:55:37;10.53;;;4.00;;
70556;SDS011;58107;51.034;3.726;2022-07-18T05:58:05;12.10;;;3.85;;
70556;SDS011;58107;51.034;3.726;2022-07-18T06:00:33;11.75;;;4.10;;
70556;SDS011;58107;51.034;3.726;2022-07-18T06:03:01;16.23;;;4.37;;
70556;SDS011;58107;51.034;3.726;2022-07-18T06:05:30;7.95;;;3.65;;
70556;SDS011;58107;51.034;3.726;2022-07-18T06:07:58;13.08;;;3.90;;
70556;SDS011;58107;51.034;3.726;2022-07-18T06:10:26;10.58;;;3.67;;
70556;SDS011;58107;51.034;3.726;2022-07-18T06:12:54;9.05;;;3.62;;
70556;SDS011;58107;51.034;3.726;2022-07-18T06:15:22;13.13;;;3.75;;
70556;SDS011;58107;51.034;3.726;2022-07-18T06:17:51;17.10;;;3.58;;
70556;SDS011;58107;51.034;3.726;2022-07-18T06:20:19;11.20;;;4.08;;
70556;SDS011;58107;51.034;3.726;2022-07-18T06:22:47;13.50;;;3.65;;
70556;SDS011;58107;51.034;3.726;2022-07-18T06:25:15;12.73;;;3.62;;
70556;SDS011;58107;51.034;3.726;2022-07-18T06:27:44;13.18;;;3.77;;
70556;SDS011;58107;51.034;3.726;2022-07-18T06:30:12;12.53;;;3.42;;
70556;SDS011;58107;51.034;3.726;2022-07-18T06:32:40;8.88;;;3.50;;
70556;SDS011;58107;51.034;3.726;2022-07-18T06:35:08;10.68;;;3.70;;
70556;SDS011;58107;51.034;3.726;2022-07-18T06:37:36;10.00;;;3.92;;
70556;SDS011;58107;51.034;3.726;2022-07-18T06:40:06;13.03;;;5.12;;
70556;SDS011;58107;51.034;3.726;2022-07-18T06:42:34;11.48;;;3.75;;
70556;SDS011;58107;51.034;3.726;2022-07-18T06:45:02;9.10;;;3.67;;
70556;SDS011;58107;51.034;3.726;2022-07-18T06:47:31;11.65;;;3.47;;
70556;SDS011;58107;51.034;3.726;2022-07-18T06:49:59;6.33;;;2.92;;
70556;SDS011;58107;51.034;3.726;2022-07-18T06:52:26;7.40;;;3.37;;
70556;SDS011;58107;51.034;3.726;2022-07-18T06:54:54;8.75;;;3.60;;
70556;SDS011;58107;51.034;3.726;2022-07-18T06:57:22;6.70;;;3.33;;
70556;SDS011;58107;51.034;3.726;2022-07-18T06:59:50;6.70;;;3.42;;
70556;SDS011;58107;51.034;3.726;2022-07-18T07:02:19;9.73;;;3.70;;
70556;SDS011;58107;51.034;3.726;2022-07-18T07:04:47;9.65;;;3.50;;
70556;SDS011;58107;51.034;3.726;2022-07-18T07:07:15;8.08;;;3.35;;
70556;SDS011;58107;51.034;3.726;2022-07-18T07:09:42;10.18;;;3.37;;
70556;SDS011;58107;51.034;3.726;2022-07-18T07:12:10;12.20;;;3.42;;
70556;SDS011;58107;51.034;3.726;2022-07-18T07:14:38;8.48;;;3.62;;
70556;SDS011;58107;51.034;3.726;2022-07-18T07:17:06;8.93;;;3.08;;
70556;SDS011;58107;51.034;3.726;2022-07-18T07:19:33;10.40;;;4.05;;
70556;SDS011;58107;51.034;3.726;2022-07-18T07:22:01;7.72;;;3.45;;
70556;SDS011;58107;51.034;3.726;2022-07-18T07:24:29;8.55;;;3.45;;
70556;SDS011;58107;51.034;3.726;2022-07-18T07:26:57;9.78;;;3.45;;
70556;SDS011;58107;51.034;3.726;2022-07-18T07:29:26;9.60;;;3.30;;
70556;SDS011;58107;51.034;3.726;2022-07-18T07:31:53;10.32;;;3.80;;
70556;SDS011;58107;51.034;3.726;2022-07-18T07:34:21;11.45;;;3.67;;
70556;SDS011;58107;51.034;3.726;2022-07-18T07:36:49;10.35;;;3.27;;
70556;SDS011;58107;51.034;3.726;2022-07-18T07:39:16;7.70;;;3.37;;
70556;SDS011;58107;51.034;3.726;2022-07-18T07:41:44;10.65;;;3.15;;
70556;SDS011;58107;51.034;3.726;2022-07-18T07:44:12;7.85;;;2.87;;
70556;SDS011;58107;51.034;3.726;2022-07-18T07:46:40;7.67;;;2.87;;
70556;SDS011;58107;51.034;3.726;2022-07-18T07:49:08;6.42;;;2.65;;
70556;SDS011;58107;51.034;3.726;2022-07-18T07:51:36;10.95;;;3.20;;
70556;SDS011;58107;51.034;3.726;2022-07-18T07:54:04;11.28;;;3.00;;
70556;SDS011;58107;51.034;3.726;2022-07-18T07:56:32;8.05;;;3.77;;
70556;SDS011;58107;51.034;3.726;2022-07-18T07:59:00;9.35;;;3.00;;
70556;SDS011;58107;51.034;3.726;2022-07-18T08:01:27;6.83;;;2.58;;
70556;SDS011;58107;51.034;3.726;2022-07-18T08:03:55;5.65;;;2.55;;
70556;SDS011;58107;51.034;3.726;2022-07-18T08:06:23;7.00;;;3.05;;
70556;SDS011;58107;51.034;3.726;2022-07-18T08:08:51;5.25;;;2.62;;
70556;SDS011;58107;51.034;3.726;2022-07-18T08:11:18;7.30;;;2.95;;
70556;SDS011;58107;51.034;3.726;2022-07-18T08:13:46;7.12;;;2.47;;
70556;SDS011;58107;51.034;3.726;2022-07-18T08:16:14;8.78;;;3.17;;
70556;SDS011;58107;51.034;3.726;2022-07-18T08:18:42;9.10;;;2.95;;
70556;SDS011;58107;51.034;3.726;2022-07-18T08:21:09;8.23;;;2.42;;
70556;SDS011;58107;51.034;3.726;2022-07-18T08:23:38;3.47;;;2.40;;
70556;SDS011;58107;51.034;3.726;2022-07-18T08:26:05;7.75;;;2.65;;
70556;SDS011;58107;51.034;3.726;2022-07-18T08:28:33;15.83;;;3.87;;
70556;SDS011;58107;51.034;3.726;2022-07-18T08:31:01;10.48;;;2.62;;
70556;SDS011;58107;51.034;3.726;2022-07-18T08:33:29;6.15;;;2.50;;
70556;SDS011;58107;51.034;3.726;2022-07-18T08:35:56;6.67;;;2.37;;
70556;SDS011;58107;51.034;3.726;2022-07-18T08:38:24;9.30;;;2.40;;
70556;SDS011;58107;51.034;3.726;2022-07-18T08:40:54;4.33;;;2.47;;
70556;SDS011;58107;51.034;3.726;2022-07-18T08:43:24;6.92;;;2.50;;
70556;SDS011;58107;51.034;3.726;2022-07-18T08:45:54;4.85;;;2.45;;
70556;SDS011;58107;51.034;3.726;2022-07-18T08:48:22;7.50;;;2.00;;
70556;SDS011;58107;51.034;3.726;2022-07-18T08:50:51;6.12;;;2.10;;
70556;SDS011;58107;51.034;3.726;2022-07-18T08:53:19;5.85;;;2.10;;
70556;SDS011;58107;51.034;3.726;2022-07-18T08:55:47;8.23;;;2.67;;
70556;SDS011;58107;51.034;3.726;2022-07-18T08:58:15;6.33;;;2.47;;
70556;SDS011;58107;51.034;3.726;2022-07-18T09:00:44;5.12;;;2.42;;
70556;SDS011;58107;51.034;3.726;2022-07-18T09:03:12;9.18;;;2.75;;
70556;SDS011;58107;51.034;3.726;2022-07-18T09:05:40;14.70;;;2.77;;
70556;SDS011;58107;51.034;3.726;2022-07-18T09:08:09;5.67;;;2.33;;
70556;SDS011;58107;51.034;3.726;2022-07-18T09:10:47;4.35;;;2.20;;
70556;SDS011;58107;51.034;3.726;2022-07-18T09:13:19;9.23;;;2.40;;
70556;SDS011;58107;51.034;3.726;2022-07-18T09:16:05;6.87;;;2.55;;
70556;SDS011;58107;51.034;3.726;2022-07-18T09:18:36;7.10;;;2.52;;
70556;SDS011;58107;51.034;3.726;2022-07-18T09:21:06;8.48;;;2.92;;
70556;SDS011;58107;51.034;3.726;2022-07-18T09:23:46;4.17;;;2.40;;
70556;SDS011;58107;51.034;3.726;2022-07-18T09:26:36;5.40;;;2.33;;
70556;SDS011;58107;51.034;3.726;2022-07-18T09:31:31;5.70;;;2.20;;
70556;SDS011;58107;51.034;3.726;2022-07-18T09:34:01;6.50;;;2.50;;
70556;SDS011;58107;51.034;3.726;2022-07-18T09:36:30;7.30;;;2.62;;
70556;SDS011;58107;51.034;3.726;2022-07-18T09:38:59;5.80;;;2.05;;
70556;SDS011;58107;51.034;3.726;2022-07-18T09:41:28;5.05;;;2.10;;
70556;SDS011;58107;51.034;3.726;2022-07-18T09:43:57;4.87;;;2.37;;
70556;SDS011;58107;51.034;3.726;2022-07-18T09:46:25;8.88;;;2.10;;
70556;SDS011;58107;51.034;3.726;2022-07-18T09:49:08;5.03;;;1.92;;
70556;SDS011;58107;51.034;3.726;2022-07-18T09:51:37;3.75;;;2.30;;
70556;SDS011;58107;51.034;3.726;2022-07-18T09:54:06;2.92;;;2.12;;
70556;SDS011;58107;51.034;3.726;2022-07-18T09:56:34;4.70;;;2.30;;
70556;SDS011;58107;51.034;3.726;2022-07-18T09:59:05;6.33;;;2.12;;
70556;SDS011;58107;51.034;3.726;2022-07-18T10:01:34;5.72;;;2.30;;
70556;SDS011;58107;51.034;3.726;2022-07-18T10:04:02;4.05;;;2.30;;
70556;SDS011;58107;51.034;3.726;2022-07-18T10:06:30;4.17;;;1.90;;
70556;SDS011;58107;51.034;3.726;2022-07-18T10:08:59;3.05;;;1.80;;
70556;SDS011;58107;51.034;3.726;2022-07-18T10:11:27;3.55;;;2.05;;
70556;SDS011;58107;51.034;3.726;2022-07-18T10:13:55;7.25;;;2.47;;
70556;SDS011;58107;51.034;3.726;2022-07-18T10:16:23;4.37;;;2.00;;
70556;SDS011;58107;51.034;3.726;2022-07-18T10:18:53;8.48;;;2.42;;
70556;SDS011;58107;51.034;3.726;2022-07-18T10:21:21;4.60;;;2.15;;
70556;SDS011;58107;51.034;3.726;2022-07-18T10:23:49;6.03;;;2.27;;
70556;SDS011;58107;51.034;3.726;2022-07-18T10:26:19;7.17;;;2.30;;
70556;SDS011;58107;51.034;3.726;2022-07-18T10:36:38;5.75;;;2.12;;
70556;SDS011;58107;51.034;3.726;2022-07-18T10:39:15;6.17;;;2.12;;
70556;SDS011;58107;51.034;3.726;2022-07-18T10:57:38;7.58;;;1.75;;
70556;SDS011;58107;51.034;3.726;2022-07-18T11:00:07;5.72;;;2.22;;
70556;SDS011;58107;51.034;3.726;2022-07-18T11:02:39;4.65;;;2.25;;
70556;SDS011;58107;51.034;3.726;2022-07-18T11:16:01;4.58;;;2.12;;
70556;SDS011;58107;51.034;3.726;2022-07-18T11:21:19;6.03;;;2.20;;
70556;SDS011;58107;51.034;3.726;2022-07-18T11:23:50;7.33;;;2.02;;
70556;SDS011;58107;51.034;3.726;2022-07-18T11:26:19;4.20;;;1.80;;
70556;SDS011;58107;51.034;3.726;2022-07-18T11:28:56;6.30;;;2.30;;
70556;SDS011;58107;51.034;3.726;2022-07-18T11:31:25;4.53;;;2.35;;
70556;SDS011;58107;51.034;3.726;2022-07-18T11:33:54;4.40;;;2.20;;
70556;SDS011;58107;51.034;3.726;2022-07-18T11:36:23;2.90;;;1.70;;
70556;SDS011;58107;51.034;3.726;2022-07-18T11:38:57;11.10;;;2.15;;
70556;SDS011;58107;51.034;3.726;2022-07-18T11:41:26;3.22;;;1.98;;
70556;SDS011;58107;51.034;3.726;2022-07-18T11:43:54;3.95;;;2.02;;
70556;SDS011;58107;51.034;3.726;2022-07-18T11:46:24;3.25;;;2.00;;
70556;SDS011;58107;51.034;3.726;2022-07-18T11:48:59;6.78;;;1.92;;
70556;SDS011;58107;51.034;3.726;2022-07-18T11:51:36;4.37;;;2.08;;
70556;SDS011;58107;51.034;3.726;2022-07-18T11:54:24;9.90;;;2.45;;
70556;SDS011;58107;51.034;3.726;2022-07-18T11:56:54;5.22;;;2.12;;
70556;SDS011;58107;51.034;3.726;2022-07-18T11:59:22;6.42;;;1.80;;
70556;SDS011;58107;51.034;3.726;2022-07-18T12:01:51;4.22;;;2.15;;
70556;SDS011;58107;51.034;3.726;2022-07-18T12:04:21;7.17;;;2.17;;
70556;SDS011;58107;51.034;3.726;2022-07-18T12:09:40;7.20;;;2.20;;
70556;SDS011;58107;51.034;3.726;2022-07-18T12:12:10;4.22;;;2.15;;
70556;SDS011;58107;51.034;3.726;2022-07-18T12:14:39;3.08;;;2.22;;
70556;SDS011;58107;51.034;3.726;2022-07-18T12:17:07;4.57;;;1.90;;
70556;SDS011;58107;51.034;3.726;2022-07-18T12:19:36;3.30;;;2.08;;
70556;SDS011;58107;51.034;3.726;2022-07-18T12:22:06;4.58;;;2.08;;
70556;SDS011;58107;51.034;3.726;2022-07-18T12:24:53;2.17;;;1.62;;
70556;SDS011;58107;51.034;3.726;2022-07-18T12:30:08;6.53;;;2.25;;
70556;SDS011;58107;51.034;3.726;2022-07-18T12:32:50;5.20;;;2.05;;
70556;SDS011;58107;51.034;3.726;2022-07-18T12:35:24;4.17;;;1.82;;
70556;SDS011;58107;51.034;3.726;2022-07-18T12:38:04;6.12;;;2.27;;
70556;SDS011;58107;51.034;3.726;2022-07-18T12:43:24;5.05;;;2.10;;
70556;SDS011;58107;51.034;3.726;2022-07-18T12:45:54;3.35;;;1.80;;
70556;SDS011;58107;51.034;3.726;2022-07-18T12:48:23;5.08;;;1.90;;
70556;SDS011;58107;51.034;3.726;2022-07-18T12:50:56;3.47;;;2.00;;
70556;SDS011;58107;51.034;3.726;2022-07-18T12:53:26;7.65;;;2.10;;
70556;SDS011;58107;51.034;3.726;2022-07-18T12:55:55;2.33;;;1.60;;
70556;SDS011;58107;51.034;3.726;2022-07-18T12:58:23;7.42;;;2.00;;
70556;SDS011;58107;51.034;3.726;2022-07-18T13:00:51;2.17;;;1.87;;
70556;SDS011;58107;51.034;3.726;2022-07-18T13:03:20;10.38;;;2.40;;
70556;SDS011;58107;51.034;3.726;2022-07-18T13:05:48;13.10;;;2.42;;
70556;SDS011;58107;51.034;3.726;2022-07-18T13:08:16;3.50;;;2.45;;
70556;SDS011;58107;51.034;3.726;2022-07-18T13:10:45;8.13;;;2.67;;
70556;SDS011;58107;51.034;3.726;2022-07-18T13:15:40;2.75;;;1.70;;
70556;SDS011;58107;51.034;3.726;2022-07-18T13:18:07;2.83;;;2.10;;
70556;SDS011;58107;51.034;3.726;2022-07-18T13:20:35;3.83;;;1.95;;
70556;SDS011;58107;51.034;3.726;2022-07-18T13:23:04;3.67;;;1.95;;
70556;SDS011;58107;51.034;3.726;2022-07-18T13:28:01;2.98;;;1.90;;
70556;SDS011;58107;51.034;3.726;2022-07-18T13:32:56;3.47;;;2.00;;
70556;SDS011;58107;51.034;3.726;2022-07-18T13:35:24;8.90;;;2.10;;
70556;SDS011;58107;51.034;3.726;2022-07-18T13:37:52;4.50;;;2.22;;
70556;SDS011;58107;51.034;3.726;2022-07-18T13:42:46;2.40;;;1.90;;
70556;SDS011;58107;51.034;3.726;2022-07-18T13:45:14;3.35;;;1.90;;
70556;SDS011;58107;51.034;3.726;2022-07-18T13:50:10;4.12;;;2.20;;
70556;SDS011;58107;51.034;3.726;2022-07-18T13:52:38;4.35;;;2.40;;
70556;SDS011;58107;51.034;3.726;2022-07-18T13:55:06;4.83;;;2.50;;
70556;SDS011;58107;51.034;3.726;2022-07-18T13:57:35;2.62;;;2.00;;
70556;SDS011;58107;51.034;3.726;2022-07-18T14:00:04;4.35;;;2.30;;
70556;SDS011;58107;51.034;3.726;2022-07-18T14:02:34;4.90;;;2.35;;
70556;SDS011;58107;51.034;3.726;2022-07-18T14:05:01;4.90;;;2.30;;
70556;SDS011;58107;51.034;3.726;2022-07-18T14:07:29;3.37;;;2.30;;
70556;SDS011;58107;51.034;3.726;2022-07-18T14:09:57;2.25;;;2.02;;
70556;SDS011;58107;51.034;3.726;2022-07-18T14:12:25;6.25;;;2.30;;
70556;SDS011;58107;51.034;3.726;2022-07-18T14:14:53;5.45;;;2.35;;
70556;SDS011;58107;51.034;3.726;2022-07-18T14:17:20;5.12;;;2.35;;
70556;SDS011;58107;51.034;3.726;2022-07-18T14:19:48;5.45;;;2.60;;
70556;SDS011;58107;51.034;3.726;2022-07-18T14:22:16;7.03;;;1.95;;
70556;SDS011;58107;51.034;3.726;2022-07-18T14:24:44;3.77;;;2.00;;
70556;SDS011;58107;51.034;3.726;2022-07-18T14:29:38;6.28;;;2.30;;
70556;SDS011;58107;51.034;3.726;2022-07-18T14:32:20;5.10;;;2.52;;
70556;SDS011;58107;51.034;3.726;2022-07-18T14:34:44;4.70;;;2.30;;
70556;SDS011;58107;51.034;3.726;2022-07-18T14:39:39;2.50;;;2.00;;
70556;SDS011;58107;51.034;3.726;2022-07-18T14:42:07;4.50;;;2.15;;
70556;SDS011;58107;51.034;3.726;2022-07-18T14:44:35;4.05;;;1.90;;
70556;SDS011;58107;51.034;3.726;2022-07-18T14:47:03;4.75;;;2.25;;
70556;SDS011;58107;51.034;3.726;2022-07-18T14:49:31;4.60;;;2.50;;
70556;SDS011;58107;51.034;3.726;2022-07-18T14:51:59;2.25;;;2.00;;
70556;SDS011;58107;51.034;3.726;2022-07-18T14:54:27;5.25;;;2.00;;
70556;SDS011;58107;51.034;3.726;2022-07-18T14:56:55;5.60;;;2.37;;
70556;SDS011;58107;51.034;3.726;2022-07-18T14:59:23;5.85;;;1.80;;
70556;SDS011;58107;51.034;3.726;2022-07-18T15:01:51;7.42;;;2.00;;
70556;SDS011;58107;51.034;3.726;2022-07-18T15:04:20;3.70;;;1.65;;
70556;SDS011;58107;51.034;3.726;2022-07-18T15:06:48;7.67;;;2.10;;
70556;SDS011;58107;51.034;3.726;2022-07-18T15:09:15;6.95;;;2.20;;
70556;SDS011;58107;51.034;3.726;2022-07-18T15:11:43;4.97;;;1.72;;
70556;SDS011;58107;51.034;3.726;2022-07-18T15:14:11;6.67;;;2.00;;
70556;SDS011;58107;51.034;3.726;2022-07-18T15:16:39;4.00;;;1.87;;
70556;SDS011;58107;51.034;3.726;2022-07-18T15:19:07;5.90;;;2.17;;
70556;SDS011;58107;51.034;3.726;2022-07-18T15:21:35;5.65;;;1.85;;
70556;SDS011;58107;51.034;3.726;2022-07-18T15:24:02;5.83;;;2.00;;
70556;SDS011;58107;51.034;3.726;2022-07-18T15:26:30;5.70;;;2.20;;
70556;SDS011;58107;51.034;3.726;2022-07-18T15:28:58;6.30;;;2.05;;
70556;SDS011;58107;51.034;3.726;2022-07-18T15:31:26;9.03;;;2.20;;
70556;SDS011;58107;51.034;3.726;2022-07-18T15:33:55;6.62;;;1.90;;
70556;SDS011;58107;51.034;3.726;2022-07-18T15:36:22;7.78;;;2.17;;
70556;SDS011;58107;51.034;3.726;2022-07-18T15:38:50;9.50;;;1.87;;
70556;SDS011;58107;51.034;3.726;2022-07-18T15:41:18;5.60;;;1.80;;
70556;SDS011;58107;51.034;3.726;2022-07-18T15:43:47;8.05;;;2.20;;
70556;SDS011;58107;51.034;3.726;2022-07-18T15:46:15;2.70;;;1.90;;
70556;SDS011;58107;51.034;3.726;2022-07-18T15:48:44;9.80;;;2.22;;
70556;SDS011;58107;51.034;3.726;2022-07-18T15:51:12;5.90;;;2.22;;
70556;SDS011;58107;51.034;3.726;2022-07-18T15:53:40;6.87;;;2.10;;
70556;SDS011;58107;51.034;3.726;2022-07-18T15:56:08;8.03;;;2.05;;
70556;SDS011;58107;51.034;3.726;2022-07-18T15:58:36;3.42;;;1.60;;